createdAt,value
2017-07-20T00:01:45.381Z,0
2017-07-20T00:04:10.066Z,0
2017-07-20T00:06:34.735Z,0
2017-07-20T00:08:59.321Z,0
2017-07-20T00:11:23.971Z,0
2017-07-20T00:13:48.565Z,0
2017-07-20T00:16:13.323Z,0
2017-07-20T00:18:29.543Z,0
2017-07-20T00:20:54.208Z,0
2017-07-20T00:23:10.417Z,0
2017-07-20T00:25:26.604Z,0
2017-07-20T00:29:35.911Z,0
2017-07-20T00:32:00.587Z,0
2017-07-20T00:34:25.363Z,0
2017-07-20T00:36:35.449Z,0
2017-07-20T00:39:00.131Z,0
2017-07-20T00:41:01.733Z,0
2017-07-20T00:43:26.465Z,0
2017-07-20T00:45:51.679Z,0
2017-07-20T00:48:07.338Z,0
2017-07-20T00:50:31.990Z,0
2017-07-20T00:52:39.682Z,0
2017-07-20T00:55:04.280Z,0
2017-07-20T00:57:20.458Z,0
2017-07-20T00:59:45.124Z,0
2017-07-20T01:02:01.303Z,0
2017-07-20T01:04:25.956Z,0
2017-07-20T01:06:42.218Z,0
2017-07-20T01:08:58.519Z,0
2017-07-20T01:11:06.358Z,0
2017-07-20T01:13:31.107Z,0
2017-07-20T01:15:38.936Z,0
2017-07-20T01:18:03.612Z,0
2017-07-20T01:20:19.932Z,0
2017-07-20T01:22:36.137Z,0
2017-07-20T01:24:52.402Z,0
2017-07-20T01:27:08.628Z,0
2017-07-20T01:29:33.303Z,0
2017-07-20T01:31:58.029Z,0
2017-07-20T01:34:22.799Z,0
2017-07-20T01:36:47.491Z,0
2017-07-20T01:39:12.183Z,0
2017-07-20T01:41:28.411Z,0
2017-07-20T01:43:53.191Z,0
2017-07-20T01:46:17.984Z,0
2017-07-20T01:48:34.198Z,0
2017-07-20T01:50:58.873Z,0
2017-07-20T01:53:23.667Z,0
2017-07-20T01:55:48.379Z,0
2017-07-20T01:58:04.587Z,0
2017-07-20T02:00:29.277Z,0
2017-07-20T02:02:53.965Z,0
2017-07-20T02:05:18.647Z,0
2017-07-20T02:07:43.354Z,0
2017-07-20T02:10:08.034Z,0
2017-07-20T02:12:32.735Z,0
2017-07-20T02:14:48.982Z,0
2017-07-20T02:18:49.491Z,0
2017-07-20T02:21:05.638Z,0
2017-07-20T02:23:30.197Z,0
2017-07-20T02:25:54.783Z,0
2017-07-20T02:28:19.369Z,0
2017-07-20T02:30:43.929Z,0
2017-07-20T02:33:08.542Z,0
2017-07-20T02:35:33.122Z,0
2017-07-20T02:37:40.899Z,0
2017-07-20T02:39:57.055Z,0
2017-07-20T02:42:21.607Z,0
2017-07-20T02:44:46.234Z,0
2017-07-20T02:47:10.905Z,0
2017-07-20T02:49:27.139Z,0
2017-07-20T02:51:43.329Z,0
2017-07-20T02:54:07.894Z,0
2017-07-20T02:56:32.487Z,0
2017-07-20T02:58:48.680Z,0
2017-07-20T03:01:13.277Z,0
2017-07-20T03:03:29.470Z,0
2017-07-20T03:05:54.085Z,0
2017-07-20T03:08:18.669Z,0
2017-07-20T03:10:43.285Z,0
2017-07-20T03:13:07.857Z,0
2017-07-20T03:15:32.443Z,0
2017-07-20T03:17:57.029Z,0
2017-07-20T03:20:13.166Z,0
2017-07-20T03:22:37.834Z,0
2017-07-20T03:25:02.335Z,4
2017-07-20T03:27:18.441Z,4
2017-07-20T03:29:43.122Z,4
2017-07-20T03:32:07.712Z,4
2017-07-20T03:34:32.349Z,8
2017-07-20T03:38:58.502Z,12
2017-07-20T03:41:23.097Z,8
2017-07-20T03:43:47.661Z,12
2017-07-20T03:48:22.160Z,20
2017-07-20T03:50:46.730Z,20
2017-07-20T03:53:11.293Z,24
2017-07-20T03:55:35.864Z,28
2017-07-20T03:58:00.416Z,32
2017-07-20T04:00:16.558Z,40
2017-07-20T04:02:41.148Z,48
2017-07-20T04:05:05.739Z,56
2017-07-20T04:07:21.870Z,68
2017-07-20T04:09:46.421Z,76
2017-07-20T04:12:10.952Z,96
2017-07-20T04:14:35.524Z,100
2017-07-20T04:17:00.035Z,76
2017-07-20T04:19:24.704Z,68
2017-07-20T04:23:50.731Z,80
2017-07-20T04:26:15.319Z,88
2017-07-20T04:28:39.823Z,100
2017-07-20T04:31:04.364Z,116
2017-07-20T04:33:29.024Z,140
2017-07-20T04:35:53.611Z,152
2017-07-20T04:38:09.734Z,156
2017-07-20T04:40:34.300Z,172
2017-07-20T04:42:58.901Z,196
2017-07-20T04:45:23.505Z,216
2017-07-20T04:47:48.088Z,256
2017-07-20T04:50:12.691Z,320
2017-07-20T04:52:28.753Z,364
2017-07-20T04:54:53.376Z,376
2017-07-20T04:57:17.970Z,376
2017-07-20T04:59:34.094Z,372
2017-07-20T05:01:58.663Z,380
2017-07-20T05:04:23.358Z,400
2017-07-20T05:06:48.046Z,428
2017-07-20T05:09:04.254Z,500
2017-07-20T05:11:20.338Z,672
2017-07-20T05:13:44.931Z,952
2017-07-20T05:16:09.534Z,1308
2017-07-20T05:18:34.127Z,1428
2017-07-20T05:20:58.711Z,1648
2017-07-20T05:23:23.421Z,1796
2017-07-20T05:25:48.112Z,1868
2017-07-20T05:28:05.266Z,1840
2017-07-20T05:30:29.932Z,1624
2017-07-20T05:32:54.635Z,1800
2017-07-20T05:35:10.745Z,2024
2017-07-20T05:37:35.368Z,2416
2017-07-20T05:40:00.126Z,2956
2017-07-20T05:42:24.849Z,3908
2017-07-20T05:44:41.164Z,5012
2017-07-20T05:47:05.972Z,10280
2017-07-20T05:49:30.905Z,9504
2017-07-20T05:51:41.196Z,7928
2017-07-20T05:54:06.506Z,5268
2017-07-20T05:56:31.827Z,7496
2017-07-20T05:58:57.155Z,9564
2017-07-20T06:01:14.089Z,7400
2017-07-20T06:03:31.021Z,6876
2017-07-20T06:05:48.047Z,7612
2017-07-20T06:08:13.574Z,7588
2017-07-20T06:10:30.568Z,7040
2017-07-20T06:12:55.952Z,9360
2017-07-20T06:15:12.830Z,10376
2017-07-20T06:17:38.195Z,22080
2017-07-20T06:20:03.626Z,3932
2017-07-20T06:24:16.130Z,6072
2017-07-20T06:26:41.463Z,7440
2017-07-20T06:29:06.722Z,6260
2017-07-20T06:31:31.932Z,9980
2017-07-20T06:33:57.264Z,27616
2017-07-20T06:36:22.591Z,16160
2017-07-20T06:38:48.000Z,20832
2017-07-20T06:41:13.385Z,29152
2017-07-20T06:43:30.352Z,28160
2017-07-20T06:45:56.045Z,21696
2017-07-20T06:48:21.868Z,25728
2017-07-20T06:50:47.842Z,14068
2017-07-20T06:53:13.922Z,16736
2017-07-20T06:55:40.271Z,21152
2017-07-20T06:57:58.006Z,18240
2017-07-20T07:00:15.886Z,16064
2017-07-20T07:04:45.131Z,16192
2017-07-20T07:07:11.956Z,14124
2017-07-20T07:09:30.165Z,13420
2017-07-20T07:11:39.824Z,10004
2017-07-20T07:14:06.374Z,9800
2017-07-20T07:16:32.785Z,7408
2017-07-20T07:18:59.006Z,6476
2017-07-20T07:21:25.004Z,6268
2017-07-20T07:23:50.829Z,5916
2017-07-20T07:26:16.505Z,5068
2017-07-20T07:28:33.621Z,4672
2017-07-20T07:33:01.349Z,4584
2017-07-20T07:35:26.655Z,9200
2017-07-20T07:37:51.955Z,8012
2017-07-20T07:40:17.245Z,8560
2017-07-20T07:42:42.502Z,14772
2017-07-20T07:45:07.783Z,16000
2017-07-20T07:47:33.100Z,10132
2017-07-20T07:49:51.191Z,8852
2017-07-20T07:52:16.574Z,7348
2017-07-20T07:54:42.017Z,6708
2017-07-20T07:58:44.097Z,5384
2017-07-20T08:01:09.448Z,3608
2017-07-20T08:03:26.222Z,2692
2017-07-20T08:05:42.948Z,2264
2017-07-20T08:07:59.652Z,1988
2017-07-20T08:10:26.387Z,1516
2017-07-20T08:12:51.510Z,1324
2017-07-20T08:15:16.614Z,1032
2017-07-20T08:17:33.219Z,848
2017-07-20T08:20:00.191Z,724
2017-07-20T08:22:10.938Z,616
2017-07-20T08:24:35.889Z,592
2017-07-20T08:27:00.823Z,724
2017-07-20T08:29:25.766Z,608
2017-07-20T08:31:50.714Z,540
2017-07-20T08:34:15.588Z,648
2017-07-20T08:36:40.534Z,928
2017-07-20T08:39:05.398Z,936
2017-07-20T08:41:21.707Z,836
2017-07-20T08:43:46.414Z,744
2017-07-20T08:46:11.198Z,688
2017-07-20T08:48:35.867Z,652
2017-07-20T08:51:00.553Z,708
2017-07-20T08:53:25.254Z,720
2017-07-20T08:55:49.866Z,652
2017-07-20T08:58:14.447Z,740
2017-07-20T09:00:39.068Z,776
2017-07-20T09:04:39.528Z,536
2017-07-20T09:06:49.687Z,504
2017-07-20T09:09:14.306Z,676
2017-07-20T09:11:38.910Z,848
2017-07-20T09:14:03.504Z,1004
2017-07-20T09:16:28.073Z,940
2017-07-20T09:20:29.003Z,848
2017-07-20T09:22:53.597Z,960
2017-07-20T09:25:18.158Z,1024
2017-07-20T09:27:42.674Z,1116
2017-07-20T09:29:58.717Z,1276
2017-07-20T09:32:23.217Z,1376
2017-07-20T09:34:47.698Z,1476
2017-07-20T09:37:12.201Z,1600
2017-07-20T09:39:36.678Z,1664
2017-07-20T09:41:52.674Z,1592
2017-07-20T09:45:53.001Z,1572
2017-07-20T09:48:09.034Z,1516
2017-07-20T09:50:33.465Z,1568
2017-07-20T09:52:57.901Z,1712
2017-07-20T09:55:22.361Z,1932
2017-07-20T09:57:46.823Z,2220
2017-07-20T10:00:11.321Z,2140
2017-07-20T10:02:35.805Z,2056
2017-07-20T10:05:00.328Z,2184
2017-07-20T10:07:24.884Z,2256
2017-07-20T10:09:32.527Z,2348
2017-07-20T10:11:58.148Z,2200
2017-07-20T10:14:22.739Z,2020
2017-07-20T10:16:47.340Z,2020
2017-07-20T10:21:14.019Z,1980
2017-07-20T10:23:30.170Z,2172
2017-07-20T10:25:54.758Z,2440
2017-07-20T10:27:56.888Z,2672
2017-07-20T10:32:23.517Z,2992
2017-07-20T10:34:48.134Z,3156
2017-07-20T10:37:12.786Z,2856
2017-07-20T10:39:37.370Z,2624
2017-07-20T10:41:53.567Z,3012
2017-07-20T10:44:18.275Z,2972
2017-07-20T10:50:22.354Z,2836
2017-07-20T10:52:47.132Z,2384
2017-07-20T10:54:57.743Z,1944
2017-07-20T10:57:22.528Z,1528
2017-07-20T10:59:47.293Z,1296
2017-07-20T11:02:12.004Z,1216
2017-07-20T11:04:36.862Z,1648
2017-07-20T11:07:01.530Z,1820
2017-07-20T11:09:26.210Z,1976
2017-07-20T11:11:42.427Z,2288
2017-07-20T11:14:07.072Z,2684
2017-07-20T11:16:31.787Z,3076
2017-07-20T11:20:32.807Z,3676
2017-07-20T11:27:01.048Z,3400
2017-07-20T11:29:25.802Z,3792
2017-07-20T11:31:50.545Z,4176
2017-07-20T11:34:15.300Z,4760
2017-07-20T11:36:40.110Z,4568
2017-07-20T11:39:04.910Z,4728
2017-07-20T11:41:29.730Z,4828
2017-07-20T11:43:54.576Z,4928
2017-07-20T11:46:19.414Z,5060
2017-07-20T11:48:27.305Z,5328
2017-07-20T11:50:52.148Z,5152
2017-07-20T11:53:16.995Z,5232
2017-07-20T11:55:41.783Z,5140
2017-07-20T12:00:08.674Z,5656
2017-07-20T12:02:33.577Z,5516
2017-07-20T12:04:49.991Z,5152
2017-07-20T12:07:14.912Z,4480
2017-07-20T12:09:39.797Z,4260
2017-07-20T12:12:04.743Z,4060
2017-07-20T12:14:29.643Z,4316
2017-07-20T12:16:46.121Z,4572
2017-07-20T12:19:10.981Z,5136
2017-07-20T12:21:35.851Z,4816
2017-07-20T12:24:00.701Z,3584
2017-07-20T12:26:17.124Z,3656
2017-07-20T12:28:33.564Z,4008
2017-07-20T12:30:58.450Z,3664
2017-07-20T12:33:23.308Z,3360
2017-07-20T12:35:48.135Z,3432
2017-07-20T12:38:13.014Z,2992
2017-07-20T12:40:29.386Z,3812
2017-07-20T12:42:54.247Z,3376
2017-07-20T12:45:10.614Z,3232
2017-07-20T12:47:35.493Z,2720
2017-07-20T12:50:00.366Z,3188
2017-07-20T12:52:25.266Z,3072
2017-07-20T12:54:50.158Z,3008
2017-07-20T12:57:00.835Z,2864
2017-07-20T12:59:25.722Z,2664
2017-07-20T13:01:42.104Z,2560
2017-07-20T13:04:06.937Z,2400
2017-07-20T13:06:31.779Z,2400
2017-07-20T13:08:48.180Z,2556
2017-07-20T13:11:13.053Z,2420
2017-07-20T13:13:37.890Z,2320
2017-07-20T13:18:04.881Z,2264
2017-07-20T13:20:15.029Z,2268
2017-07-20T13:22:31.441Z,2244
2017-07-20T13:24:56.293Z,2224
2017-07-20T13:27:21.159Z,2224
2017-07-20T13:29:45.999Z,1660
2017-07-20T13:34:03.933Z,1932
2017-07-20T13:36:20.320Z,1736
2017-07-20T13:38:45.124Z,2060
2017-07-20T13:41:09.973Z,2556
2017-07-20T13:43:34.770Z,2436
2017-07-20T13:45:59.634Z,2540
2017-07-20T13:48:15.999Z,2480
2017-07-20T13:50:40.869Z,2556
2017-07-20T13:53:05.672Z,2492
2017-07-20T13:55:30.544Z,2268
2017-07-20T13:57:55.405Z,2816
2017-07-20T14:00:20.327Z,2480
2017-07-20T14:02:45.361Z,2580
2017-07-20T14:05:10.253Z,2464
2017-07-20T14:07:26.723Z,2792
2017-07-20T14:09:51.683Z,2336
2017-07-20T14:12:08.209Z,2576
2017-07-20T14:14:33.215Z,3036
2017-07-20T14:16:58.307Z,3420
2017-07-20T14:19:23.248Z,3268
2017-07-20T14:21:39.819Z,3176
2017-07-20T14:23:56.307Z,2904
2017-07-20T14:26:21.243Z,2320
2017-07-20T14:28:22.962Z,1672
2017-07-20T14:30:47.945Z,972
2017-07-20T14:33:12.877Z,624
2017-07-20T14:35:37.726Z,552
2017-07-20T14:38:02.529Z,560
2017-07-20T14:40:27.299Z,444
2017-07-20T14:42:52.030Z,184
2017-07-20T14:45:08.302Z,152
2017-07-20T14:47:32.909Z,160
2017-07-20T14:49:57.569Z,216
2017-07-20T14:52:22.141Z,280
2017-07-20T14:54:46.649Z,364
2017-07-20T14:57:11.133Z,448
2017-07-20T14:59:35.710Z,532
2017-07-20T15:01:51.750Z,604
2017-07-20T15:04:07.845Z,668
2017-07-20T15:06:32.416Z,744
2017-07-20T15:08:56.899Z,792
2017-07-20T15:11:21.376Z,848
2017-07-20T15:13:45.813Z,956
2017-07-20T15:16:10.191Z,1052
2017-07-20T15:18:34.652Z,1200
2017-07-20T15:20:59.234Z,1272
2017-07-20T15:23:15.240Z,1324
2017-07-20T15:25:39.702Z,1568
2017-07-20T15:28:04.355Z,1508
2017-07-20T15:30:29.020Z,1444
2017-07-20T15:32:53.549Z,1484
2017-07-20T15:35:18.100Z,1508
2017-07-20T15:37:44.822Z,1540
2017-07-20T15:40:22.634Z,1904
2017-07-20T15:42:48.280Z,2304
2017-07-20T15:45:13.006Z,2736
2017-07-20T15:47:37.608Z,2920
2017-07-20T15:49:53.762Z,2908
2017-07-20T15:52:18.413Z,2816
2017-07-20T15:54:43.225Z,2644
2017-07-20T15:57:07.853Z,2436
2017-07-20T15:59:32.526Z,2260
2017-07-20T16:01:57.181Z,2108
2017-07-20T16:04:21.795Z,2004
2017-07-20T16:06:37.927Z,1956
2017-07-20T16:08:54.018Z,1952
2017-07-20T16:11:19.343Z,1924
2017-07-20T16:13:35.568Z,1928
2017-07-20T16:16:00.304Z,1928
2017-07-20T16:18:24.959Z,1904
2017-07-20T16:20:41.187Z,1892
2017-07-20T16:22:57.356Z,1868
2017-07-20T16:25:21.949Z,1828
2017-07-20T16:27:46.634Z,1796
2017-07-20T16:30:11.239Z,1764
2017-07-20T16:32:35.796Z,1720
2017-07-20T16:35:00.346Z,1692
2017-07-20T16:37:24.928Z,1636
2017-07-20T16:39:49.612Z,1548
2017-07-20T16:42:14.302Z,1516
2017-07-20T16:44:38.938Z,1484
2017-07-20T16:47:03.506Z,1428
2017-07-20T16:49:28.094Z,1292
2017-07-20T16:51:52.789Z,1112
2017-07-20T16:54:08.918Z,1092
2017-07-20T16:56:33.581Z,1064
2017-07-20T16:58:58.287Z,1056
2017-07-20T17:01:22.876Z,1096
2017-07-20T17:03:47.445Z,1224
2017-07-20T17:06:12.173Z,1228
2017-07-20T17:08:36.847Z,1244
2017-07-20T17:11:01.434Z,1256
2017-07-20T17:13:17.522Z,1264
2017-07-20T17:15:42.124Z,1304
2017-07-20T17:18:06.702Z,1344
2017-07-20T17:20:31.319Z,1372
2017-07-20T17:22:55.891Z,1396
2017-07-20T17:25:20.485Z,1404
2017-07-20T17:27:45.111Z,1408
2017-07-20T17:30:09.813Z,1432
2017-07-20T17:32:34.438Z,1448
2017-07-20T17:34:59.038Z,1348
2017-07-20T17:37:23.650Z,1380
2017-07-20T17:39:39.817Z,1340
2017-07-20T17:42:04.506Z,1264
2017-07-20T17:44:29.191Z,1124
2017-07-20T17:46:53.762Z,1056
2017-07-20T17:49:09.838Z,1036
2017-07-20T17:51:34.446Z,1032
2017-07-20T17:53:58.979Z,1040
2017-07-20T17:56:00.602Z,1008
2017-07-20T17:58:25.182Z,964
2017-07-20T18:00:49.718Z,912
2017-07-20T18:03:14.233Z,888
2017-07-20T18:05:30.301Z,884
2017-07-20T18:07:54.853Z,872
2017-07-20T18:10:19.407Z,836
2017-07-20T18:12:35.525Z,888
2017-07-20T18:15:00.132Z,828
2017-07-20T18:17:24.648Z,704
2017-07-20T18:19:34.727Z,600
2017-07-20T18:21:59.276Z,628
2017-07-20T18:24:23.821Z,656
2017-07-20T18:26:48.366Z,644
2017-07-20T18:31:14.391Z,644
2017-07-20T18:33:38.907Z,548
2017-07-20T18:35:54.925Z,476
2017-07-20T18:38:19.491Z,396
2017-07-20T18:40:35.559Z,368
2017-07-20T18:42:43.174Z,420
2017-07-20T18:45:07.717Z,428
2017-07-20T18:47:23.799Z,376
2017-07-20T18:49:48.470Z,348
2017-07-20T18:52:13.059Z,316
2017-07-20T18:54:37.653Z,280
2017-07-20T18:57:02.118Z,260
2017-07-20T18:59:26.624Z,244
2017-07-20T19:01:42.676Z,216
2017-07-20T19:04:07.188Z,172
2017-07-20T19:06:31.694Z,124
2017-07-20T19:08:42.256Z,96
2017-07-20T19:11:06.793Z,80
2017-07-20T19:13:31.316Z,64
2017-07-20T19:15:55.848Z,48
2017-07-20T19:18:20.345Z,36
2017-07-20T19:20:36.372Z,32
2017-07-20T19:23:00.873Z,24
2017-07-20T19:25:25.371Z,20
2017-07-20T19:27:49.814Z,12
2017-07-20T19:30:14.305Z,12
2017-07-20T19:32:38.790Z,8
2017-07-20T19:35:03.278Z,4
2017-07-20T19:37:19.346Z,8
2017-07-20T19:39:43.812Z,4
2017-07-20T19:41:59.974Z,4
2017-07-20T19:44:15.981Z,0
2017-07-20T19:46:31.969Z,0
2017-07-20T19:48:47.933Z,0
2017-07-20T19:51:12.399Z,0
2017-07-20T19:53:36.838Z,0
2017-07-20T19:56:01.284Z,0
2017-07-20T19:58:17.284Z,0
2017-07-20T20:00:33.308Z,0
2017-07-20T20:02:57.842Z,0
2017-07-20T20:05:22.307Z,0
2017-07-20T20:07:46.766Z,0
2017-07-20T20:10:11.190Z,0
2017-07-20T20:12:35.645Z,0
2017-07-20T20:15:00.104Z,0
2017-07-20T20:17:24.499Z,0
2017-07-20T20:19:48.945Z,0
2017-07-20T20:22:04.895Z,0
2017-07-20T20:24:29.365Z,0
2017-07-20T20:26:53.801Z,0
2017-07-20T20:30:54.585Z,0
2017-07-20T20:33:19.183Z,0
2017-07-20T20:35:43.581Z,0
2017-07-20T20:38:07.977Z,0
2017-07-20T20:40:32.393Z,0
2017-07-20T20:42:56.790Z,0
2017-07-20T20:45:21.143Z,0
2017-07-20T20:47:45.564Z,0
2017-07-20T20:50:10.055Z,0
2017-07-20T20:52:34.505Z,0
2017-07-20T20:57:00.428Z,0
2017-07-20T20:59:24.844Z,0
2017-07-20T21:01:49.299Z,0
2017-07-20T21:04:13.718Z,0
2017-07-20T21:08:39.655Z,0
2017-07-20T21:11:04.108Z,0
2017-07-20T21:13:20.468Z,0
2017-07-20T21:15:44.937Z,0
2017-07-20T21:18:09.314Z,0
2017-07-20T21:20:33.726Z,0
2017-07-20T21:22:58.275Z,0
2017-07-20T21:25:22.653Z,0
2017-07-20T21:27:47.140Z,0
2017-07-20T21:30:11.670Z,0
2017-07-20T21:32:35.953Z,0
2017-07-20T21:35:00.333Z,0
2017-07-20T21:37:16.231Z,0
2017-07-20T21:39:40.670Z,0
2017-07-20T21:42:05.119Z,0
2017-07-20T21:44:29.517Z,0
2017-07-20T21:46:53.944Z,0
2017-07-20T21:49:18.368Z,0
2017-07-20T21:51:42.753Z,0
2017-07-20T21:53:32.754Z,0
2017-07-20T21:55:57.144Z,0
2017-07-20T21:58:13.069Z,0
2017-07-20T22:00:37.400Z,0
2017-07-20T22:03:01.767Z,0
2017-07-20T22:06:53.563Z,0
2017-07-20T22:09:18.087Z,0
2017-07-20T22:11:33.990Z,0
2017-07-20T22:13:58.349Z,0
2017-07-20T22:16:22.757Z,0
2017-07-20T22:18:47.146Z,0
2017-07-20T22:20:54.549Z,0
2017-07-20T22:23:18.882Z,0
2017-07-20T22:25:43.289Z,0
2017-07-20T22:27:59.144Z,0
2017-07-20T22:30:23.578Z,0
2017-07-20T22:34:49.336Z,0
2017-07-20T22:37:13.678Z,0
2017-07-20T22:39:38.005Z,0
2017-07-20T22:42:02.334Z,0
2017-07-20T22:44:18.206Z,0
2017-07-20T22:46:34.061Z,0
2017-07-20T22:48:58.348Z,0
2017-07-20T22:51:14.288Z,0
2017-07-20T22:53:21.828Z,0
2017-07-20T22:55:46.238Z,0
2017-07-20T22:58:02.109Z,0
2017-07-20T23:00:18.065Z,0
2017-07-20T23:02:42.336Z,0
2017-07-20T23:07:08.147Z,0
2017-07-20T23:09:32.521Z,0
2017-07-20T23:11:56.864Z,0
2017-07-20T23:14:21.300Z,0
2017-07-20T23:16:45.704Z,0
2017-07-20T23:19:01.620Z,0
2017-07-20T23:21:17.515Z,0
2017-07-20T23:23:41.826Z,0
2017-07-20T23:26:06.253Z,0
2017-07-20T23:28:30.648Z,0
2017-07-20T23:30:55.027Z,0
2017-07-20T23:33:19.377Z,0
2017-07-20T23:35:43.800Z,0
2017-07-20T23:37:59.751Z,0
2017-07-20T23:40:24.089Z,0
2017-07-20T23:42:48.471Z,0
2017-07-20T23:45:12.860Z,0
2017-07-20T23:47:28.738Z,0
2017-07-20T23:49:44.572Z,0
2017-07-20T23:52:08.896Z,0
2017-07-20T23:54:33.235Z,0
2017-07-20T23:56:57.577Z,0
2017-07-20T23:59:21.916Z,0
